Amasa, MI

9:52 PM CDT on August 20, 2014 (GMT -0500)
Ford | Change Station
CLOSE
Current Station
Airport
Location: Iron Mountain,
Elevation: 1181 ft
Nearby Weather Stations

Elev 1181 ft 45.82 °N, 88.11 °W | Updated 58 minutes ago

Overcast
Overcast
65 °F
Feels Like 65 °F
N
4
Wind Variable Wind from North

Today
High -- | Low -- °F
--% Chance of Precip.
Yesterday
High -- | Low -- °F
Precip. -- in
5:59 AM 7:54 PM
Waning Crescent, 17% visible
Pressure 29.95 in
Visibility 10.0 miles
Clouds Few 2000 ft
Overcast 3800 ft
Dew Point 61 °F
Humidity 87%
Rainfall 0.00 in
Snow Depth Not available.
UV 0 out of 12
Pollen 9.10 out of 12
Air Quality Not available.
Flu Activity Not available.
METAR KIMT 210154Z AUTO 35003KT 10SM FEW020 OVC038 18/16 A2994 RMK AO2 SLP140 T01830161 TSNO

More Conditions Fewer Conditions

Pressure 29.95 in
Visibility 10.0 miles
Clouds Few 2000 ft
Overcast 3800 ft
Dew Point 61 °F
Humidity 87%
Rainfall 0.00 in
Snow Depth Not available.
UV 0 out of 12
Pollen 9.10 out of 12
Air Quality Not available.
Flu Activity Not available.
METAR KIMT 210154Z AUTO 35003KT 10SM FEW020 OVC038 18/16 A2994 RMK AO2 SLP140 T01830161 TSNO

More Conditions Fewer Conditions

10-Day Weather Forecast

Almanac

Astronomy

Aug. 20, 2014 Rise Set
Actual Time 5:59 AM CDT 7:54 PM CDT
Civil Twilight 5:26 AM CDT 8:26 PM CDT
Nautical Twilight 4:47 AM CDT 9:05 PM CDT
Astronomical Twilight 4:03 AM CDT 9:49 PM CDT
Moon 1:32 AM CDT (8/20) 4:45 PM CDT (8/20)
Length of Visible Light 14h 59m
Length of Day
13h 55m
Tomorrow will be 3m 2s shorter.
Waning Crescent, 17% of the Moon is Illuminated
Today
Waning Crescent
Aug 25
New
Sep 2
First Quarter
Sep 8
Full
Sep 15
Last Quarter

Today's Extremes

State Highs State Lows

Community

WunderPhotos

Upload Photos

1,745,839 photos uploaded!

WunderBlogs® & News

By Dr. Jeff Masters
Director of Meteorology, Weather Underground
By Kari Strenfel
Meteorologist, Weather Underground
By Christopher C. Burt
Weather Historian, Weather Underground
August 20, 2014
August 20, 2014
August 20, 2014

Nearby

Snow Depth

Station Depth Elevation
No new snow has been reported.

Earthquake Activity

City Distance Mag. Time & Date
No recent earthquake activity has been reported nearby.
Minimum magnitude displayed is 2.5.

Coastal Water Temperatures

Place Temperature
No Stations Reporting

Nearby Weather Stations